sensor_id;sensor_type;location;lat;lon;timestamp;temperature;humidity
64743;HTU21D;51177;45.018;38.982;2022-08-01T00:01:48;25.64;48.08
64743;HTU21D;51177;45.018;38.982;2022-08-01T00:04:15;25.65;48.21
64743;HTU21D;51177;45.018;38.982;2022-08-01T00:06:41;25.62;48.46
64743;HTU21D;51177;45.018;38.982;2022-08-01T00:09:08;25.61;49.31
64743;HTU21D;51177;45.018;38.982;2022-08-01T00:11:34;25.60;48.95
64743;HTU21D;51177;45.018;38.982;2022-08-01T00:14:04;25.61;48.68
64743;HTU21D;51177;45.018;38.982;2022-08-01T00:16:29;0.00;48.47
64743;HTU21D;51177;45.018;38.982;2022-08-01T00:18:56;25.59;48.81
64743;HTU21D;51177;45.018;38.982;2022-08-01T00:21:22;25.57;50.16
64743;HTU21D;51177;45.018;38.982;2022-08-01T00:23:48;25.56;50.39
64743;HTU21D;51177;45.018;38.982;2022-08-01T00:26:14;0.00;49.69
64743;HTU21D;51177;45.018;38.982;2022-08-01T00:28:40;25.46;49.29
64743;HTU21D;51177;45.018;38.982;2022-08-01T00:31:07;25.48;51.99
64743;HTU21D;51177;45.018;38.982;2022-08-01T00:33:34;25.48;50.03
64743;HTU21D;51177;45.018;38.982;2022-08-01T00:36:00;25.49;52.46
64743;HTU21D;51177;45.018;38.982;2022-08-01T00:38:26;25.47;50.55
64743;HTU21D;51177;45.018;38.982;2022-08-01T00:40:52;25.42;50.63
64743;HTU21D;51177;45.018;38.982;2022-08-01T00:43:21;25.40;51.47
64743;HTU21D;51177;45.018;38.982;2022-08-01T00:45:46;0.00;52.86
64743;HTU21D;51177;45.018;38.982;2022-08-01T00:48:13;25.32;51.36
64743;HTU21D;51177;45.018;38.982;2022-08-01T00:50:45;25.27;51.28
64743;HTU21D;51177;45.018;38.982;2022-08-01T00:53:11;25.21;51.25
64743;HTU21D;51177;45.018;38.982;2022-08-01T00:55:38;0.00;51.32
64743;HTU21D;51177;45.018;38.982;2022-08-01T00:58:04;25.13;51.78
64743;HTU21D;51177;45.018;38.982;2022-08-01T01:00:31;25.09;54.01
64743;HTU21D;51177;45.018;38.982;2022-08-01T01:02:57;25.05;51.73
64743;HTU21D;51177;45.018;38.982;2022-08-01T01:05:24;0.00;51.62
64743;HTU21D;51177;45.018;38.982;2022-08-01T01:07:56;24.94;51.19
64743;HTU21D;51177;45.018;38.982;2022-08-01T01:18:09;24.85;51.48
64743;HTU21D;51177;45.018;38.982;2022-08-01T01:20:37;24.83;51.44
64743;HTU21D;51177;45.018;38.982;2022-08-01T01:23:19;0.00;51.46
64743;HTU21D;51177;45.018;38.982;2022-08-01T01:28:25;24.77;51.24
64743;HTU21D;51177;45.018;38.982;2022-08-01T01:30:54;24.77;51.04
64743;HTU21D;51177;45.018;38.982;2022-08-01T01:33:21;0.00;51.03
64743;HTU21D;51177;45.018;38.982;2022-08-01T01:35:48;24.74;52.80
64743;HTU21D;51177;45.018;38.982;2022-08-01T01:38:27;24.77;52.94
64743;HTU21D;51177;45.018;38.982;2022-08-01T01:40:54;24.82;52.21
64743;HTU21D;51177;45.018;38.982;2022-08-01T01:43:21;24.82;51.98
64743;HTU21D;51177;45.018;38.982;2022-08-01T01:45:48;24.82;52.46
64743;HTU21D;51177;45.018;38.982;2022-08-01T01:48:15;24.84;52.55
64743;HTU21D;51177;45.018;38.982;2022-08-01T01:50:44;24.87;52.00
64743;HTU21D;51177;45.018;38.982;2022-08-01T01:53:12;24.87;52.30
64743;HTU21D;51177;45.018;38.982;2022-08-01T01:55:38;24.88;52.46
64743;HTU21D;51177;45.018;38.982;2022-08-01T01:58:05;0.00;52.71
64743;HTU21D;51177;45.018;38.982;2022-08-01T02:00:34;24.87;52.14
64743;HTU21D;51177;45.018;38.982;2022-08-01T02:03:01;24.89;53.17
64743;HTU21D;51177;45.018;38.982;2022-08-01T02:05:29;0.00;52.82
64743;HTU21D;51177;45.018;38.982;2022-08-01T02:07:55;24.86;52.37
64743;HTU21D;51177;45.018;38.982;2022-08-01T02:10:23;24.84;52.49
64743;HTU21D;51177;45.018;38.982;2022-08-01T02:12:50;24.80;52.40
64743;HTU21D;51177;45.018;38.982;2022-08-01T02:15:17;0.00;52.43
64743;HTU21D;51177;45.018;38.982;2022-08-01T02:17:44;24.77;53.29
64743;HTU21D;51177;45.018;38.982;2022-08-01T02:20:11;24.77;52.85
64743;HTU21D;51177;45.018;38.982;2022-08-01T02:22:42;0.00;53.16
64743;HTU21D;51177;45.018;38.982;2022-08-01T02:25:20;0.00;53.42
64743;HTU21D;51177;45.018;38.982;2022-08-01T02:28:04;24.82;52.84
64743;HTU21D;51177;45.018;38.982;2022-08-01T02:31:00;0.00;52.94
64743;HTU21D;51177;45.018;38.982;2022-08-01T02:33:33;24.94;53.00
64743;HTU21D;51177;45.018;38.982;2022-08-01T02:36:01;24.95;52.90
64743;HTU21D;51177;45.018;38.982;2022-08-01T02:38:28;25.02;53.67
64743;HTU21D;51177;45.018;38.982;2022-08-01T02:40:57;25.04;53.43
64743;HTU21D;51177;45.018;38.982;2022-08-01T02:43:26;25.05;53.46
64743;HTU21D;51177;45.018;38.982;2022-08-01T02:45:55;25.20;53.86
64743;HTU21D;51177;45.018;38.982;2022-08-01T02:48:23;25.53;53.46
64743;HTU21D;51177;45.018;38.982;2022-08-01T02:50:56;25.91;53.65
64743;HTU21D;51177;45.018;38.982;2022-08-01T02:53:23;26.28;53.46
64743;HTU21D;51177;45.018;38.982;2022-08-01T02:55:49;26.67;52.15
64743;HTU21D;51177;45.018;38.982;2022-08-01T02:58:17;27.11;52.21
64743;HTU21D;51177;45.018;38.982;2022-08-01T03:00:44;27.42;52.24
64743;HTU21D;51177;45.018;38.982;2022-08-01T03:03:11;0.00;52.43
64743;HTU21D;51177;45.018;38.982;2022-08-01T03:05:38;27.96;50.79
64743;HTU21D;51177;45.018;38.982;2022-08-01T03:08:06;28.27;51.56
64743;HTU21D;51177;45.018;38.982;2022-08-01T03:10:33;28.57;50.21
64743;HTU21D;51177;45.018;38.982;2022-08-01T03:13:01;0.00;49.34
64743;HTU21D;51177;45.018;38.982;2022-08-01T03:15:54;29.22;49.15
64743;HTU21D;51177;45.018;38.982;2022-08-01T03:18:21;29.48;48.47
64743;HTU21D;51177;45.018;38.982;2022-08-01T03:20:48;29.66;48.20
64743;HTU21D;51177;45.018;38.982;2022-08-01T03:23:14;0.00;47.81
64743;HTU21D;51177;45.018;38.982;2022-08-01T03:25:41;30.15;47.44
64743;HTU21D;51177;45.018;38.982;2022-08-01T03:28:10;30.33;47.09
64743;HTU21D;51177;45.018;38.982;2022-08-01T03:30:37;30.53;46.83
64743;HTU21D;51177;45.018;38.982;2022-08-01T03:33:04;30.83;46.35
64743;HTU21D;51177;45.018;38.982;2022-08-01T03:35:32;31.10;45.68
64743;HTU21D;51177;45.018;38.982;2022-08-01T03:37:58;31.40;45.26
64743;HTU21D;51177;45.018;38.982;2022-08-01T03:40:28;0.00;44.54
64743;HTU21D;51177;45.018;38.982;2022-08-01T03:42:58;31.97;44.37
64743;HTU21D;51177;45.018;38.982;2022-08-01T03:45:25;32.29;43.13
64743;HTU21D;51177;45.018;38.982;2022-08-01T03:47:59;32.34;42.95
64743;HTU21D;51177;45.018;38.982;2022-08-01T03:50:29;32.50;43.28
64743;HTU21D;51177;45.018;38.982;2022-08-01T03:52:57;32.96;42.68
64743;HTU21D;51177;45.018;38.982;2022-08-01T03:55:25;0.00;41.36
64743;HTU21D;51177;45.018;38.982;2022-08-01T03:57:51;33.31;41.00
64743;HTU21D;51177;45.018;38.982;2022-08-01T04:00:18;33.31;40.89
64743;HTU21D;51177;45.018;38.982;2022-08-01T04:02:45;0.00;41.33
64743;HTU21D;51177;45.018;38.982;2022-08-01T04:05:11;33.51;41.16
64743;HTU21D;51177;45.018;38.982;2022-08-01T04:07:37;33.70;40.23
64743;HTU21D;51177;45.018;38.982;2022-08-01T04:10:10;33.65;40.62
64743;HTU21D;51177;45.018;38.982;2022-08-01T04:12:36;33.65;40.18
64743;HTU21D;51177;45.018;38.982;2022-08-01T04:15:03;33.71;40.23
64743;HTU21D;51177;45.018;38.982;2022-08-01T04:17:29;33.96;40.30
64743;HTU21D;51177;45.018;38.982;2022-08-01T04:19:55;34.33;39.46
64743;HTU21D;51177;45.018;38.982;2022-08-01T04:22:21;34.51;38.79
64743;HTU21D;51177;45.018;38.982;2022-08-01T04:24:49;34.63;39.26
64743;HTU21D;51177;45.018;38.982;2022-08-01T04:27:29;34.77;39.11
64743;HTU21D;51177;45.018;38.982;2022-08-01T04:30:02;34.85;38.69
64743;HTU21D;51177;45.018;38.982;2022-08-01T04:32:29;0.00;38.55
64743;HTU21D;51177;45.018;38.982;2022-08-01T04:34:57;35.08;38.26
64743;HTU21D;51177;45.018;38.982;2022-08-01T04:37:25;34.93;38.89
64743;HTU21D;51177;45.018;38.982;2022-08-01T04:39:53;34.98;38.85
64743;HTU21D;51177;45.018;38.982;2022-08-01T04:42:19;35.01;39.12
64743;HTU21D;51177;45.018;38.982;2022-08-01T04:44:48;35.28;38.88
64743;HTU21D;51177;45.018;38.982;2022-08-01T04:47:14;35.26;38.93
64743;HTU21D;51177;45.018;38.982;2022-08-01T04:50:05;35.31;39.14
64743;HTU21D;51177;45.018;38.982;2022-08-01T04:52:37;35.34;39.33
64743;HTU21D;51177;45.018;38.982;2022-08-01T04:55:04;35.42;39.29
64743;HTU21D;51177;45.018;38.982;2022-08-01T04:57:33;35.36;39.48
64743;HTU21D;51177;45.018;38.982;2022-08-01T05:00:00;35.47;39.46
64743;HTU21D;51177;45.018;38.982;2022-08-01T05:02:28;35.55;39.59
64743;HTU21D;51177;45.018;38.982;2022-08-01T05:04:54;35.70;39.52
64743;HTU21D;51177;45.018;38.982;2022-08-01T05:07:26;0.00;39.67
64743;HTU21D;51177;45.018;38.982;2022-08-01T05:09:52;35.95;39.70
64743;HTU21D;51177;45.018;38.982;2022-08-01T05:12:19;36.01;39.52
64743;HTU21D;51177;45.018;38.982;2022-08-01T05:14:46;35.93;39.52
64743;HTU21D;51177;45.018;38.982;2022-08-01T05:17:12;35.86;39.98
64743;HTU21D;51177;45.018;38.982;2022-08-01T05:19:39;35.99;39.69
64743;HTU21D;51177;45.018;38.982;2022-08-01T05:22:06;35.95;39.59
64743;HTU21D;51177;45.018;38.982;2022-08-01T05:24:57;35.97;39.88
64743;HTU21D;51177;45.018;38.982;2022-08-01T05:27:25;36.19;39.72
64743;HTU21D;51177;45.018;38.982;2022-08-01T05:29:52;36.48;39.38
64743;HTU21D;51177;45.018;38.982;2022-08-01T05:32:18;36.72;39.01
64743;HTU21D;51177;45.018;38.982;2022-08-01T05:34:44;36.96;38.78
64743;HTU21D;51177;45.018;38.982;2022-08-01T05:37:10;37.22;38.46
64743;HTU21D;51177;45.018;38.982;2022-08-01T05:39:36;37.66;37.95
64743;HTU21D;51177;45.018;38.982;2022-08-01T05:42:02;38.10;37.43
64743;HTU21D;51177;45.018;38.982;2022-08-01T05:44:28;38.56;36.52
64743;HTU21D;51177;45.018;38.982;2022-08-01T05:46:54;38.86;35.93
64743;HTU21D;51177;45.018;38.982;2022-08-01T05:49:20;39.12;35.42
64743;HTU21D;51177;45.018;38.982;2022-08-01T05:51:46;39.29;35.07
64743;HTU21D;51177;45.018;38.982;2022-08-01T05:54:12;39.73;34.42
64743;HTU21D;51177;45.018;38.982;2022-08-01T05:56:38;40.08;34.02
64743;HTU21D;51177;45.018;38.982;2022-08-01T05:59:04;40.22;33.34
64743;HTU21D;51177;45.018;38.982;2022-08-01T06:01:33;40.33;33.44
64743;HTU21D;51177;45.018;38.982;2022-08-01T06:03:59;40.44;32.60
64743;HTU21D;51177;45.018;38.982;2022-08-01T06:06:25;40.40;32.84
64743;HTU21D;51177;45.018;38.982;2022-08-01T06:08:51;40.60;32.49
64743;HTU21D;51177;45.018;38.982;2022-08-01T06:11:18;40.67;31.94
64743;HTU21D;51177;45.018;38.982;2022-08-01T06:13:45;40.72;31.77
64743;HTU21D;51177;45.018;38.982;2022-08-01T06:16:12;40.78;31.51
64743;HTU21D;51177;45.018;38.982;2022-08-01T06:18:38;40.95;31.55
64743;HTU21D;51177;45.018;38.982;2022-08-01T06:21:39;41.21;30.93
64743;HTU21D;51177;45.018;38.982;2022-08-01T06:24:06;41.41;30.75
64743;HTU21D;51177;45.018;38.982;2022-08-01T06:26:32;41.50;30.16
64743;HTU21D;51177;45.018;38.982;2022-08-01T06:28:59;41.47;29.88
64743;HTU21D;51177;45.018;38.982;2022-08-01T06:31:26;41.69;29.94
64743;HTU21D;51177;45.018;38.982;2022-08-01T06:33:52;41.63;29.97
64743;HTU21D;51177;45.018;38.982;2022-08-01T06:36:18;41.50;30.06
64743;HTU21D;51177;45.018;38.982;2022-08-01T06:38:49;41.57;29.98
64743;HTU21D;51177;45.018;38.982;2022-08-01T06:41:15;41.66;29.09
64743;HTU21D;51177;45.018;38.982;2022-08-01T06:43:42;41.32;29.86
64743;HTU21D;51177;45.018;38.982;2022-08-01T06:46:08;41.40;29.77
64743;HTU21D;51177;45.018;38.982;2022-08-01T06:48:34;41.37;29.82
64743;HTU21D;51177;45.018;38.982;2022-08-01T06:51:05;41.45;30.00
64743;HTU21D;51177;45.018;38.982;2022-08-01T06:53:36;41.86;29.61
64743;HTU21D;51177;45.018;38.982;2022-08-01T06:56:21;42.10;29.41
64743;HTU21D;51177;45.018;38.982;2022-08-01T06:58:48;42.19;29.42
64743;HTU21D;51177;45.018;38.982;2022-08-01T07:01:14;42.41;29.26
64743;HTU21D;51177;45.018;38.982;2022-08-01T07:03:40;42.66;29.02
64743;HTU21D;51177;45.018;38.982;2022-08-01T07:06:08;42.90;28.81
64743;HTU21D;51177;45.018;38.982;2022-08-01T07:08:39;42.87;28.12
64743;HTU21D;51177;45.018;38.982;2022-08-01T07:11:04;42.76;28.19
64743;HTU21D;51177;45.018;38.982;2022-08-01T07:13:31;42.79;28.37
64743;HTU21D;51177;45.018;38.982;2022-08-01T07:16:01;43.10;28.27
64743;HTU21D;51177;45.018;38.982;2022-08-01T07:18:27;43.54;27.92
64743;HTU21D;51177;45.018;38.982;2022-08-01T07:20:55;43.74;27.60
64743;HTU21D;51177;45.018;38.982;2022-08-01T07:23:21;43.81;27.46
64743;HTU21D;51177;45.018;38.982;2022-08-01T07:25:49;43.68;27.50
64743;HTU21D;51177;45.018;38.982;2022-08-01T07:28:18;43.72;27.49
64743;HTU21D;51177;45.018;38.982;2022-08-01T07:30:44;43.69;26.94
64743;HTU21D;51177;45.018;38.982;2022-08-01T07:33:10;43.55;27.09
64743;HTU21D;51177;45.018;38.982;2022-08-01T07:35:36;43.39;27.16
64743;HTU21D;51177;45.018;38.982;2022-08-01T07:38:06;43.09;27.37
64743;HTU21D;51177;45.018;38.982;2022-08-01T07:40:33;42.83;27.59
64743;HTU21D;51177;45.018;38.982;2022-08-01T07:43:03;42.62;27.77
64743;HTU21D;51177;45.018;38.982;2022-08-01T07:45:29;42.51;27.81
64743;HTU21D;51177;45.018;38.982;2022-08-01T07:47:56;42.49;28.05
64743;HTU21D;51177;45.018;38.982;2022-08-01T07:50:22;42.57;27.82
64743;HTU21D;51177;45.018;38.982;2022-08-01T07:52:48;42.58;27.78
64743;HTU21D;51177;45.018;38.982;2022-08-01T07:55:14;42.60;27.86
64743;HTU21D;51177;45.018;38.982;2022-08-01T07:57:40;42.62;27.45
64743;HTU21D;51177;45.018;38.982;2022-08-01T08:00:09;42.45;27.74
64743;HTU21D;51177;45.018;38.982;2022-08-01T08:02:47;42.28;28.08
64743;HTU21D;51177;45.018;38.982;2022-08-01T08:05:17;42.16;28.27
64743;HTU21D;51177;45.018;38.982;2022-08-01T08:07:42;42.23;28.02
64743;HTU21D;51177;45.018;38.982;2022-08-01T08:10:34;42.09;28.24
64743;HTU21D;51177;45.018;38.982;2022-08-01T08:13:00;42.06;28.11
64743;HTU21D;51177;45.018;38.982;2022-08-01T08:15:27;41.87;28.48
64743;HTU21D;51177;45.018;38.982;2022-08-01T08:17:53;41.50;28.83
64743;HTU21D;51177;45.018;38.982;2022-08-01T08:20:20;41.41;29.13
64743;HTU21D;51177;45.018;38.982;2022-08-01T08:22:52;41.46;29.22
64743;HTU21D;51177;45.018;38.982;2022-08-01T08:28:34;41.52;28.77
64743;HTU21D;51177;45.018;38.982;2022-08-01T08:31:02;41.42;29.00
64743;HTU21D;51177;45.018;38.982;2022-08-01T08:36:18;40.81;29.80
64743;HTU21D;51177;45.018;38.982;2022-08-01T08:38:46;40.70;30.13
64743;HTU21D;51177;45.018;38.982;2022-08-01T08:41:12;40.53;30.35
64743;HTU21D;51177;45.018;38.982;2022-08-01T08:43:40;40.30;30.78
64743;HTU21D;51177;45.018;38.982;2022-08-01T08:46:06;39.97;30.77
64743;HTU21D;51177;45.018;38.982;2022-08-01T08:48:34;39.08;32.05
64743;HTU21D;51177;45.018;38.982;2022-08-01T08:51:00;38.82;32.53
64743;HTU21D;51177;45.018;38.982;2022-08-01T08:53:27;38.55;33.25
64743;HTU21D;51177;45.018;38.982;2022-08-01T08:55:56;38.25;33.52
64743;HTU21D;51177;45.018;38.982;2022-08-01T08:58:22;38.28;33.57
64743;HTU21D;51177;45.018;38.982;2022-08-01T09:00:50;38.25;33.83
64743;HTU21D;51177;45.018;38.982;2022-08-01T09:03:23;38.22;33.86
64743;HTU21D;51177;45.018;38.982;2022-08-01T09:06:49;38.06;34.01
64743;HTU21D;51177;45.018;38.982;2022-08-01T09:13:05;37.92;34.40
64743;HTU21D;51177;45.018;38.982;2022-08-01T09:15:43;37.79;34.58
64743;HTU21D;51177;45.018;38.982;2022-08-01T09:21:29;37.69;34.58
64743;HTU21D;51177;45.018;38.982;2022-08-01T09:23:55;37.56;34.79
64743;HTU21D;51177;45.018;38.982;2022-08-01T09:29:52;37.35;34.92
64743;HTU21D;51177;45.018;38.982;2022-08-01T09:32:20;37.25;35.07
64743;HTU21D;51177;45.018;38.982;2022-08-01T09:34:46;37.21;35.21
64743;HTU21D;51177;45.018;38.982;2022-08-01T09:37:12;37.20;35.05
64743;HTU21D;51177;45.018;38.982;2022-08-01T09:42:35;37.11;35.05
64743;HTU21D;51177;45.018;38.982;2022-08-01T09:45:03;37.02;35.42
64743;HTU21D;51177;45.018;38.982;2022-08-01T09:47:39;36.83;35.41
64743;HTU21D;51177;45.018;38.982;2022-08-01T09:50:08;36.81;35.50
64743;HTU21D;51177;45.018;38.982;2022-08-01T09:52:39;36.69;35.67
64743;HTU21D;51177;45.018;38.982;2022-08-01T09:55:13;36.59;35.74
64743;HTU21D;51177;45.018;38.982;2022-08-01T09:57:55;36.63;35.73
64743;HTU21D;51177;45.018;38.982;2022-08-01T10:00:23;36.75;35.58
64743;HTU21D;51177;45.018;38.982;2022-08-01T10:02:49;36.73;35.59
64743;HTU21D;51177;45.018;38.982;2022-08-01T10:05:17;36.68;35.96
64743;HTU21D;51177;45.018;38.982;2022-08-01T10:07:55;36.64;35.84
64743;HTU21D;51177;45.018;38.982;2022-08-01T10:10:21;36.63;36.33
64743;HTU21D;51177;45.018;38.982;2022-08-01T10:12:51;36.57;36.22
64743;HTU21D;51177;45.018;38.982;2022-08-01T10:15:18;36.48;36.28
64743;HTU21D;51177;45.018;38.982;2022-08-01T10:17:55;36.38;36.38
64743;HTU21D;51177;45.018;38.982;2022-08-01T10:20:25;36.46;36.34
64743;HTU21D;51177;45.018;38.982;2022-08-01T10:22:51;36.37;36.08
64743;HTU21D;51177;45.018;38.982;2022-08-01T10:25:19;36.22;36.21
64743;HTU21D;51177;45.018;38.982;2022-08-01T10:27:47;35.96;36.45
64743;HTU21D;51177;45.018;38.982;2022-08-01T10:30:14;35.86;36.59
64743;HTU21D;51177;45.018;38.982;2022-08-01T10:32:43;35.94;36.51
64743;HTU21D;51177;45.018;38.982;2022-08-01T10:35:11;36.04;36.63
64743;HTU21D;51177;45.018;38.982;2022-08-01T10:37:43;36.08;36.58
64743;HTU21D;51177;45.018;38.982;2022-08-01T10:40:10;35.96;36.42
64743;HTU21D;51177;45.018;38.982;2022-08-01T10:42:38;35.99;36.35
64743;HTU21D;51177;45.018;38.982;2022-08-01T10:45:04;36.01;36.20
64743;HTU21D;51177;45.018;38.982;2022-08-01T10:47:56;36.02;36.17
64743;HTU21D;51177;45.018;38.982;2022-08-01T10:58:25;36.15;35.82
64743;HTU21D;51177;45.018;38.982;2022-08-01T11:04:14;36.09;36.01
64743;HTU21D;51177;45.018;38.982;2022-08-01T11:06:41;36.14;36.09
64743;HTU21D;51177;45.018;38.982;2022-08-01T11:14:21;36.41;35.81
64743;HTU21D;51177;45.018;38.982;2022-08-01T11:16:47;36.60;35.63
64743;HTU21D;51177;45.018;38.982;2022-08-01T11:19:57;36.85;35.31
64743;HTU21D;51177;45.018;38.982;2022-08-01T11:28:27;36.72;35.58
64743;HTU21D;51177;45.018;38.982;2022-08-01T11:38:46;36.91;35.31
64743;HTU21D;51177;45.018;38.982;2022-08-01T11:41:26;36.88;35.18
64743;HTU21D;51177;45.018;38.982;2022-08-01T11:47:05;36.26;35.78
64743;HTU21D;51177;45.018;38.982;2022-08-01T11:52:07;35.93;36.11
64743;HTU21D;51177;45.018;38.982;2022-08-01T11:54:35;35.77;36.19
64743;HTU21D;51177;45.018;38.982;2022-08-01T11:57:05;35.51;36.48
64743;HTU21D;51177;45.018;38.982;2022-08-01T11:59:38;35.33;36.74
64743;HTU21D;51177;45.018;38.982;2022-08-01T12:02:30;35.11;36.84
64743;HTU21D;51177;45.018;38.982;2022-08-01T12:04:59;34.97;36.99
64743;HTU21D;51177;45.018;38.982;2022-08-01T12:07:36;34.92;36.98
64743;HTU21D;51177;45.018;38.982;2022-08-01T12:12:42;34.88;36.99
64743;HTU21D;51177;45.018;38.982;2022-08-01T12:15:12;34.82;37.06
64743;HTU21D;51177;45.018;38.982;2022-08-01T12:17:42;34.78;37.08
64743;HTU21D;51177;45.018;38.982;2022-08-01T12:20:09;34.79;37.05
64743;HTU21D;51177;45.018;38.982;2022-08-01T12:22:37;34.78;37.04
64743;HTU21D;51177;45.018;38.982;2022-08-01T12:25:08;34.73;37.24
64743;HTU21D;51177;45.018;38.982;2022-08-01T12:27:34;34.55;37.44
64743;HTU21D;51177;45.018;38.982;2022-08-01T12:30:00;34.40;37.66
64743;HTU21D;51177;45.018;38.982;2022-08-01T12:34:53;34.15;38.08
64743;HTU21D;51177;45.018;38.982;2022-08-01T12:37:23;34.04;38.37
64743;HTU21D;51177;45.018;38.982;2022-08-01T12:39:49;33.95;38.44
64743;HTU21D;51177;45.018;38.982;2022-08-01T12:42:15;33.82;38.75
64743;HTU21D;51177;45.018;38.982;2022-08-01T12:44:42;33.72;39.08
64743;HTU21D;51177;45.018;38.982;2022-08-01T12:47:10;33.65;39.06
64743;HTU21D;51177;45.018;38.982;2022-08-01T12:49:36;33.64;39.43
64743;HTU21D;51177;45.018;38.982;2022-08-01T12:52:04;33.61;39.06
64743;HTU21D;51177;45.018;38.982;2022-08-01T12:54:30;33.57;39.48
64743;HTU21D;51177;45.018;38.982;2022-08-01T12:56:56;33.51;39.39
64743;HTU21D;51177;45.018;38.982;2022-08-01T12:59:26;33.52;39.20
64743;HTU21D;51177;45.018;38.982;2022-08-01T13:01:54;33.50;39.32
64743;HTU21D;51177;45.018;38.982;2022-08-01T13:04:21;33.48;39.22
64743;HTU21D;51177;45.018;38.982;2022-08-01T13:06:48;33.47;39.17
64743;HTU21D;51177;45.018;38.982;2022-08-01T13:09:14;33.46;39.06
64743;HTU21D;51177;45.018;38.982;2022-08-01T13:11:43;33.40;39.14
64743;HTU21D;51177;45.018;38.982;2022-08-01T13:14:09;33.37;39.20
64743;HTU21D;51177;45.018;38.982;2022-08-01T13:16:46;33.40;39.14
64743;HTU21D;51177;45.018;38.982;2022-08-01T13:19:12;33.44;39.04
64743;HTU21D;51177;45.018;38.982;2022-08-01T13:21:38;33.44;39.26
64743;HTU21D;51177;45.018;38.982;2022-08-01T13:24:11;33.35;39.37
64743;HTU21D;51177;45.018;38.982;2022-08-01T13:29:07;33.15;40.42
64743;HTU21D;51177;45.018;38.982;2022-08-01T13:32:21;33.00;40.53
64743;HTU21D;51177;45.018;38.982;2022-08-01T13:34:45;32.83;40.65
64743;HTU21D;51177;45.018;38.982;2022-08-01T13:37:11;32.71;40.69
64743;HTU21D;51177;45.018;38.982;2022-08-01T13:39:37;32.66;40.64
64743;HTU21D;51177;45.018;38.982;2022-08-01T13:42:12;32.61;40.65
64743;HTU21D;51177;45.018;38.982;2022-08-01T13:44:39;32.57;41.48
64743;HTU21D;51177;45.018;38.982;2022-08-01T13:47:12;32.49;41.90
64743;HTU21D;51177;45.018;38.982;2022-08-01T13:49:38;32.44;42.42
64743;HTU21D;51177;45.018;38.982;2022-08-01T13:52:04;32.35;42.21
64743;HTU21D;51177;45.018;38.982;2022-08-01T13:54:31;32.26;41.85
64743;HTU21D;51177;45.018;38.982;2022-08-01T13:56:57;32.19;41.99
64743;HTU21D;51177;45.018;38.982;2022-08-01T13:59:23;32.13;42.07
64743;HTU21D;51177;45.018;38.982;2022-08-01T14:01:49;32.09;41.87
64743;HTU21D;51177;45.018;38.982;2022-08-01T14:04:15;32.02;42.32
64743;HTU21D;51177;45.018;38.982;2022-08-01T14:06:44;31.98;42.97
64743;HTU21D;51177;45.018;38.982;2022-08-01T14:09:10;31.74;43.35
64743;HTU21D;51177;45.018;38.982;2022-08-01T14:11:36;31.39;44.04
64743;HTU21D;51177;45.018;38.982;2022-08-01T14:14:02;30.98;46.24
64743;HTU21D;51177;45.018;38.982;2022-08-01T14:19:20;30.06;52.62
64743;HTU21D;51177;45.018;38.982;2022-08-01T14:21:47;29.53;52.46
64743;HTU21D;51177;45.018;38.982;2022-08-01T14:24:13;29.12;59.03
64743;HTU21D;51177;45.018;38.982;2022-08-01T14:26:39;28.31;54.82
64743;HTU21D;51177;45.018;38.982;2022-08-01T14:29:05;27.96;58.83
64743;HTU21D;51177;45.018;38.982;2022-08-01T14:31:31;27.70;56.77
64743;HTU21D;51177;45.018;38.982;2022-08-01T14:33:58;27.53;56.16
64743;HTU21D;51177;45.018;38.982;2022-08-01T14:36:24;27.35;56.32
64743;HTU21D;51177;45.018;38.982;2022-08-01T14:38:50;27.07;57.74
64743;HTU21D;51177;45.018;38.982;2022-08-01T14:41:16;26.81;56.68
64743;HTU21D;51177;45.018;38.982;2022-08-01T14:43:43;26.66;56.13
64743;HTU21D;51177;45.018;38.982;2022-08-01T14:46:09;26.58;55.63
64743;HTU21D;51177;45.018;38.982;2022-08-01T14:48:37;26.54;59.32
64743;HTU21D;51177;45.018;38.982;2022-08-01T14:51:03;26.21;57.55
64743;HTU21D;51177;45.018;38.982;2022-08-01T14:53:30;25.90;57.29
64743;HTU21D;51177;45.018;38.982;2022-08-01T14:55:56;25.77;59.93
64743;HTU21D;51177;45.018;38.982;2022-08-01T14:58:22;25.69;66.74
64743;HTU21D;51177;45.018;38.982;2022-08-01T15:00:50;25.68;68.61
64743;HTU21D;51177;45.018;38.982;2022-08-01T15:03:20;25.73;70.20
64743;HTU21D;51177;45.018;38.982;2022-08-01T15:05:46;25.73;65.24
64743;HTU21D;51177;45.018;38.982;2022-08-01T15:08:12;25.63;63.00
64743;HTU21D;51177;45.018;38.982;2022-08-01T15:10:38;25.50;60.89
64743;HTU21D;51177;45.018;38.982;2022-08-01T15:13:04;25.34;58.48
64743;HTU21D;51177;45.018;38.982;2022-08-01T15:15:30;25.25;57.96
64743;HTU21D;51177;45.018;38.982;2022-08-01T15:17:58;25.23;56.19
64743;HTU21D;51177;45.018;38.982;2022-08-01T15:20:25;25.25;55.23
64743;HTU21D;51177;45.018;38.982;2022-08-01T15:22:53;25.37;55.09
64743;HTU21D;51177;45.018;38.982;2022-08-01T15:25:19;25.47;54.03
64743;HTU21D;51177;45.018;38.982;2022-08-01T15:27:48;25.54;53.97
64743;HTU21D;51177;45.018;38.982;2022-08-01T15:30:14;25.61;53.66
64743;HTU21D;51177;45.018;38.982;2022-08-01T15:32:40;25.69;53.44
64743;HTU21D;51177;45.018;38.982;2022-08-01T15:35:06;25.76;53.23
64743;HTU21D;51177;45.018;38.982;2022-08-01T15:37:34;25.81;53.04
64743;HTU21D;51177;45.018;38.982;2022-08-01T15:40:00;25.79;53.09
64743;HTU21D;51177;45.018;38.982;2022-08-01T15:42:26;25.79;52.99
64743;HTU21D;51177;45.018;38.982;2022-08-01T15:44:53;25.83;52.83
64743;HTU21D;51177;45.018;38.982;2022-08-01T15:47:24;25.88;52.70
64743;HTU21D;51177;45.018;38.982;2022-08-01T15:49:51;25.95;52.57
64743;HTU21D;51177;45.018;38.982;2022-08-01T15:52:17;26.02;52.38
64743;HTU21D;51177;45.018;38.982;2022-08-01T15:54:42;26.11;52.13
64743;HTU21D;51177;45.018;38.982;2022-08-01T15:57:10;26.19;52.14
64743;HTU21D;51177;45.018;38.982;2022-08-01T15:59:36;26.21;51.98
64743;HTU21D;51177;45.018;38.982;2022-08-01T16:02:02;26.23;51.78
64743;HTU21D;51177;45.018;38.982;2022-08-01T16:04:28;26.23;51.89
64743;HTU21D;51177;45.018;38.982;2022-08-01T16:06:55;26.21;51.82
64743;HTU21D;51177;45.018;38.982;2022-08-01T16:09:21;26.16;52.47
64743;HTU21D;51177;45.018;38.982;2022-08-01T16:11:51;26.11;55.11
64743;HTU21D;51177;45.018;38.982;2022-08-01T16:14:17;26.01;55.60
64743;HTU21D;51177;45.018;38.982;2022-08-01T16:16:46;25.91;56.77
64743;HTU21D;51177;45.018;38.982;2022-08-01T16:19:12;25.83;56.40
64743;HTU21D;51177;45.018;38.982;2022-08-01T16:24:30;25.62;60.76
64743;HTU21D;51177;45.018;38.982;2022-08-01T16:26:56;25.51;59.37
64743;HTU21D;51177;45.018;38.982;2022-08-01T16:29:22;25.45;58.63
64743;HTU21D;51177;45.018;38.982;2022-08-01T16:31:48;25.42;60.16